Time;durP1;ratioP1;P1;durP2;ratioP2;P2;SDS_P1;SDS_P2;PMS_P1;PMS_P2;Temp;Humidity;BMP_temperature;BMP_pressure;BME280_temperature;BME280_humidity;BME280_pressure;Samples;Min_cycle;Max_cycle;Signal;HPM_P1;HPM_P2
2022/07/20 00:00:00;;;;;;;8.98;5.07;;;22.70;78.30;;;;;;5010118;28;20026;-85
2022/07/20 00:02:26;;;;;;;12.82;4.35;;;22.70;78.30;;;;;;5009699;28;20061;-84
2022/07/20 00:04:52;;;;;;;10.25;4.20;;;22.70;78.10;;;;;;5008447;28;20057;-84
2022/07/20 00:07:18;;;;;;;12.73;3.75;;;22.70;78.20;;;;;;5026776;28;20034;-83
2022/07/20 00:12:29;;;;;;;9.65;4.25;;;22.60;78.80;;;;;;5027448;28;20040;-83
2022/07/20 00:14:55;;;;;;;8.30;4.18;;;22.50;79.10;;;;;;5013801;28;20026;-83
2022/07/20 00:17:20;;;;;;;12.50;3.60;;;22.40;79.40;;;;;;5032275;28;20041;-86
2022/07/20 00:19:46;;;;;;;13.63;3.90;;;22.40;79.80;;;;;;5018863;28;20029;-83
2022/07/20 00:22:13;;;;;;;6.93;3.70;;;22.40;80.00;;;;;;5038208;28;20026;-84
2022/07/20 00:24:39;;;;;;;11.20;3.58;;;22.40;80.10;;;;;;5015111;28;20063;-85
2022/07/20 00:27:05;;;;;;;7.20;3.60;;;22.40;80.20;;;;;;5031208;28;20010;-86
2022/07/20 00:29:31;;;;;;;7.85;3.38;;;22.40;80.10;;;;;;5032004;28;20002;-85
2022/07/20 00:31:57;;;;;;;7.72;3.88;;;22.40;80.30;;;;;;5031584;28;20033;-85
2022/07/20 00:34:22;;;;;;;7.00;3.17;;;22.40;80.40;;;;;;5029084;28;20021;-84
2022/07/20 00:36:48;;;;;;;7.45;3.35;;;22.40;80.70;;;;;;5011184;28;20041;-84
2022/07/20 00:39:14;;;;;;;11.13;4.03;;;22.40;80.90;;;;;;5032176;28;20030;-86
2022/07/20 00:41:40;;;;;;;8.45;3.90;;;22.30;81.50;;;;;;5012902;28;20034;-85
2022/07/20 00:44:10;;;;;;;12.13;3.80;;;22.20;82.00;;;;;;5030134;28;20022;-84
2022/07/20 00:46:39;;;;;;;9.20;3.60;;;22.10;82.70;;;;;;5029199;28;20038;-84
2022/07/20 00:49:06;;;;;;;7.88;3.22;;;22.00;83.50;;;;;;5028757;28;20048;-86
2022/07/20 00:51:33;;;;;;;13.45;4.00;;;21.90;84.50;;;;;;5028252;28;20066;-86
2022/07/20 00:53:59;;;;;;;11.98;3.97;;;21.80;85.00;;;;;;5014405;28;20022;-83
2022/07/20 00:56:25;;;;;;;12.80;4.13;;;21.80;85.90;;;;;;5021249;28;20026;-84
2022/07/20 00:58:51;;;;;;;13.48;3.92;;;21.70;86.70;;;;;;5038112;28;20014;-83
2022/07/20 01:01:17;;;;;;;9.57;3.88;;;21.60;87.50;;;;;;5020890;28;20141;-85
2022/07/20 01:03:44;;;;;;;11.13;4.28;;;21.60;88.50;;;;;;5038098;28;20011;-84
2022/07/20 01:06:11;;;;;;;14.18;4.18;;;21.50;89.30;;;;;;5020834;28;20018;-84
2022/07/20 01:08:37;;;;;;;10.02;3.45;;;21.40;90.50;;;;;;5018707;28;20030;-84
2022/07/20 01:11:03;;;;;;;11.27;3.67;;;21.50;90.60;;;;;;4999509;28;20022;-84
2022/07/20 01:13:29;;;;;;;10.52;3.38;;;21.50;90.80;;;;;;5035341;28;20022;-83
2022/07/20 01:15:55;;;;;;;10.73;4.32;;;21.60;90.90;;;;;;5035343;28;20014;-84
2022/07/20 01:18:20;;;;;;;12.13;3.70;;;21.70;91.60;;;;;;5018356;28;20038;-85
2022/07/20 01:20:48;;;;;;;9.18;4.03;;;21.80;91.40;;;;;;5001856;28;20450;-85
2022/07/20 01:23:18;;;;;;;14.40;4.13;;;21.80;91.50;;;;;;5012533;28;20049;-85
2022/07/20 01:25:44;;;;;;;17.58;3.80;;;21.90;91.90;;;;;;5030042;28;20037;-84
2022/07/20 01:28:12;;;;;;;10.85;3.80;;;21.90;92.20;;;;;;5030482;28;20026;-86
2022/07/20 01:30:39;;;;;;;10.13;4.05;;;21.90;92.80;;;;;;5013099;28;20038;-84
2022/07/20 01:33:06;;;;;;;12.00;3.88;;;21.90;93.00;;;;;;5014315;28;20080;-84
2022/07/20 01:35:32;;;;;;;13.43;4.07;;;21.90;93.40;;;;;;5017863;28;20038;-84
2022/07/20 01:37:58;;;;;;;10.30;3.70;;;21.80;93.90;;;;;;5038559;28;20041;-86
2022/07/20 01:40:24;;;;;;;7.63;3.83;;;21.80;94.40;;;;;;5042152;28;20041;-84
2022/07/20 01:42:49;;;;;;;16.17;3.90;;;21.70;94.80;;;;;;5042178;28;20010;-85
2022/07/20 01:45:15;;;;;;;6.05;3.47;;;21.70;95.10;;;;;;5041895;28;20044;-86
2022/07/20 01:47:41;;;;;;;9.65;3.75;;;21.70;95.60;;;;;;5024808;28;20049;-85
2022/07/20 01:50:08;;;;;;;9.10;3.72;;;21.70;95.60;;;;;;5041508;28;20014;-84
2022/07/20 01:52:33;;;;;;;13.65;3.65;;;21.80;95.80;;;;;;5041343;28;20249;-85
2022/07/20 01:54:59;;;;;;;7.35;3.30;;;21.80;96.00;;;;;;5041485;28;20045;-85
2022/07/20 01:57:25;;;;;;;5.75;3.45;;;21.70;96.20;;;;;;5024295;28;20020;-83
2022/07/20 01:59:51;;;;;;;12.70;3.63;;;21.70;96.60;;;;;;5022208;28;20014;-85
2022/07/20 02:02:17;;;;;;;9.05;3.72;;;21.60;97.00;;;;;;5038815;28;20022;-84
2022/07/20 02:04:43;;;;;;;6.60;3.42;;;21.60;97.10;;;;;;5032867;28;20022;-83
2022/07/20 02:07:08;;;;;;;11.25;3.63;;;21.60;97.40;;;;;;5031674;28;20394;-83
2022/07/20 02:09:35;;;;;;;9.85;3.80;;;21.50;97.70;;;;;;5031904;28;20044;-82
2022/07/20 02:12:01;;;;;;;7.65;3.55;;;21.50;97.90;;;;;;5014254;28;20030;-84
2022/07/20 02:14:27;;;;;;;11.43;4.05;;;21.50;98.30;;;;;;5021151;28;20045;-83
2022/07/20 02:16:53;;;;;;;11.48;3.70;;;21.40;98.60;;;;;;5015737;28;20026;-83
2022/07/20 02:19:19;;;;;;;11.15;3.80;;;21.30;99.00;;;;;;4997684;28;20040;-84
2022/07/20 02:21:44;;;;;;;8.80;3.30;;;21.50;98.90;;;;;;5013001;28;20030;-84
2022/07/20 02:24:10;;;;;;;13.45;4.03;;;21.50;98.70;;;;;;5013729;28;20036;-85
2022/07/20 02:26:36;;;;;;;12.43;3.53;;;21.60;98.50;;;;;;5022915;28;20018;-84
2022/07/20 02:29:02;;;;;;;12.95;3.80;;;21.60;98.30;;;;;;5024264;28;20037;-84
2022/07/20 02:31:28;;;;;;;9.23;3.42;;;21.60;98.50;;;;;;5040928;28;20022;-84
2022/07/20 02:33:53;;;;;;;13.75;3.55;;;21.60;98.50;;;;;;5040724;28;20012;-84
2022/07/20 02:36:19;;;;;;;13.18;3.72;;;21.60;98.50;;;;;;5023785;28;20074;-83
2022/07/20 02:38:45;;;;;;;15.52;3.70;;;21.50;99.10;;;;;;5039754;28;20025;-86
2022/07/20 02:41:11;;;;;;;7.05;3.35;;;21.40;99.50;;;;;;5039979;28;20057;-85
2022/07/20 02:43:38;;;;;;;9.57;3.47;;;21.30;99.80;;;;;;5040068;28;20033;-84
2022/07/20 02:46:04;;;;;;;11.93;3.80;;;21.30;99.90;;;;;;5033463;28;20038;-85
2022/07/20 02:48:30;;;;;;;9.35;3.88;;;21.30;99.90;;;;;;5017273;28;20034;-83
2022/07/20 02:50:56;;;;;;;9.82;3.92;;;21.30;99.90;;;;;;5032243;28;20030;-85
2022/07/20 02:53:22;;;;;;;10.25;3.80;;;21.40;99.90;;;;;;5030665;28;20041;-86
2022/07/20 02:55:48;;;;;;;11.57;3.65;;;21.30;99.90;;;;;;5012745;28;20026;-86
2022/07/20 02:58:14;;;;;;;12.35;3.70;;;21.40;99.90;;;;;;5029661;28;20053;-84
2022/07/20 03:00:41;;;;;;;16.13;3.58;;;21.40;99.90;;;;;;5029934;28;20049;-85
2022/07/20 03:03:08;;;;;;;13.30;3.65;;;21.30;99.90;;;;;;5029490;28;20406;-85
2022/07/20 03:05:34;;;;;;;9.10;3.78;;;21.30;99.90;;;;;;5032921;28;20030;-85
2022/07/20 03:08:00;;;;;;;11.55;3.83;;;21.30;99.90;;;;;;5040065;28;20026;-85
2022/07/20 03:10:26;;;;;;;15.55;4.05;;;21.20;99.90;;;;;;5039658;28;20041;-84
2022/07/20 03:12:52;;;;;;;14.63;3.70;;;21.20;99.90;;;;;;5039858;28;20017;-85
2022/07/20 03:15:18;;;;;;;8.90;3.38;;;21.10;99.90;;;;;;5039863;28;20045;-85
2022/07/20 03:17:50;;;;;;;15.70;3.47;;;21.10;99.90;;;;;;5022721;28;20033;-84
2022/07/20 03:20:34;;;;;;;13.30;3.83;;;21.00;99.90;;;;;;5036846;28;20022;-87
2022/07/20 03:23:02;;;;;;;13.13;4.35;;;21.00;99.90;;;;;;5037819;28;20041;-85
2022/07/20 03:25:28;;;;;;;15.68;3.60;;;21.00;99.90;;;;;;5036526;28;20026;-84
2022/07/20 03:27:55;;;;;;;9.75;3.75;;;21.00;99.90;;;;;;5036098;28;20061;-85
2022/07/20 03:30:22;;;;;;;17.13;4.00;;;21.00;99.90;;;;;;5029484;23;20422;-76
2022/07/20 03:32:48;;;;;;;19.13;4.22;;;20.80;99.90;;;;;;5015603;28;20038;-77
2022/07/20 03:35:14;;;;;;;12.88;4.03;;;20.70;99.90;;;;;;5014137;28;20029;-75
2022/07/20 03:37:40;;;;;;;16.77;3.67;;;20.50;99.90;;;;;;5013930;28;20117;-77
2022/07/20 03:40:07;;;;;;;15.70;3.92;;;20.30;99.90;;;;;;5013613;28;20054;-76
2022/07/20 03:42:33;;;;;;;12.98;3.75;;;20.20;99.90;;;;;;5014705;28;20021;-78
2022/07/20 03:44:59;;;;;;;10.77;3.45;;;20.10;99.90;;;;;;5018294;28;20026;-77
2022/07/20 03:47:25;;;;;;;15.10;3.85;;;20.10;99.90;;;;;;5000563;28;20038;-77
2022/07/20 03:49:51;;;;;;;12.98;4.22;;;20.00;99.90;;;;;;5018623;28;20041;-76
2022/07/20 03:52:18;;;;;;;13.27;3.97;;;20.00;99.90;;;;;;5019598;28;20466;-77
2022/07/20 03:54:44;;;;;;;15.50;3.90;;;20.00;99.90;;;;;;5018182;28;20022;-75
2022/07/20 03:57:10;;;;;;;22.30;3.90;;;20.00;99.90;;;;;;5015005;28;20033;-77
2022/07/20 03:59:36;;;;;;;20.33;4.45;;;20.00;99.90;;;;;;5014301;28;20026;-76
2022/07/20 04:02:02;;;;;;;17.08;4.18;;;20.00;99.90;;;;;;5016919;28;20040;-76
2022/07/20 04:04:28;;;;;;;17.95;4.53;;;20.00;99.90;;;;;;5013652;28;20027;-76
2022/07/20 04:06:55;;;;;;;15.80;3.92;;;20.00;99.90;;;;;;5013717;28;20040;-77
2022/07/20 04:12:07;;;;;;;11.95;4.18;;;19.90;99.90;;;;;;5014432;28;20053;-77
2022/07/20 04:14:33;;;;;;;16.33;4.40;;;20.00;99.90;;;;;;5013468;28;20061;-75
2022/07/20 04:16:59;;;;;;;12.75;3.78;;;20.00;99.90;;;;;;5014173;28;20030;-77
2022/07/20 04:19:25;;;;;;;13.25;3.83;;;20.00;99.90;;;;;;5013978;28;20041;-76
2022/07/20 04:21:58;;;;;;;16.15;3.92;;;20.00;99.90;;;;;;5016042;28;20030;-77
2022/07/20 04:24:25;;;;;;;17.17;4.50;;;20.10;99.90;;;;;;5016275;28;20034;-79
2022/07/20 04:26:51;;;;;;;13.40;3.92;;;20.10;99.90;;;;;;5019506;28;20466;-77
2022/07/20 04:29:17;;;;;;;12.88;3.53;;;20.20;99.90;;;;;;5001043;28;20540;-77
2022/07/20 04:31:46;;;;;;;12.85;3.65;;;20.20;99.90;;;;;;5026940;28;20034;-86
2022/07/20 04:34:12;;;;;;;15.20;3.80;;;20.30;99.90;;;;;;5004192;28;20032;-77
2022/07/20 04:36:38;;;;;;;14.02;4.22;;;20.40;99.90;;;;;;5015929;28;20389;-78
2022/07/20 04:39:04;;;;;;;12.00;4.30;;;20.40;99.90;;;;;;5014556;28;20029;-76
2022/07/20 04:41:29;;;;;;;23.17;4.65;;;20.50;99.90;;;;;;5014531;28;20105;-77
2022/07/20 04:43:55;;;;;;;13.88;4.15;;;20.60;99.90;;;;;;5017066;28;20129;-78
2022/07/20 04:46:21;;;;;;;12.15;4.45;;;20.60;99.90;;;;;;5017926;28;20029;-77
2022/07/20 04:48:47;;;;;;;14.05;4.65;;;20.80;99.90;;;;;;5017515;28;20036;-77
2022/07/20 04:51:12;;;;;;;19.48;4.13;;;21.20;99.90;;;;;;5016534;28;20521;-77
2022/07/20 04:53:38;;;;;;;11.35;4.03;;;21.30;99.90;;;;;;5019143;28;20116;-76
2022/07/20 04:56:04;;;;;;;11.88;3.90;;;21.40;99.90;;;;;;5016429;28;20026;-77
2022/07/20 04:58:33;;;;;;;11.30;4.03;;;21.50;99.90;;;;;;5015790;28;20049;-77
2022/07/20 05:00:59;;;;;;;15.60;4.22;;;21.60;99.90;;;;;;5016001;28;20456;-77
2022/07/20 05:03:26;;;;;;;12.68;3.88;;;21.70;99.90;;;;;;5018064;28;20095;-77
2022/07/20 05:05:53;;;;;;;14.25;4.28;;;21.70;99.90;;;;;;5020393;28;20111;-77
2022/07/20 05:08:19;;;;;;;7.50;3.70;;;21.90;99.90;;;;;;5003511;28;20095;-78
2022/07/20 05:10:44;;;;;;;20.25;4.38;;;22.00;99.90;;;;;;5002157;28;20061;-77
2022/07/20 05:13:10;;;;;;;16.10;5.00;;;22.10;99.80;;;;;;5021912;28;20030;-77
2022/07/20 05:15:36;;;;;;;16.75;4.57;;;22.10;99.90;;;;;;5003852;28;20053;-78
2022/07/20 05:18:02;;;;;;;21.90;4.72;;;22.30;99.60;;;;;;5023917;28;20033;-78
2022/07/20 05:20:27;;;;;;;16.08;4.60;;;22.50;99.00;;;;;;5023805;28;20022;-78
2022/07/20 05:22:53;;;;;;;12.30;3.85;;;22.50;98.70;;;;;;5023658;28;20037;-79
2022/07/20 05:25:19;;;;;;;17.30;4.63;;;22.50;98.50;;;;;;5028442;28;20073;-78
2022/07/20 05:27:45;;;;;;;12.43;4.40;;;22.60;98.30;;;;;;5007497;28;20045;-78
2022/07/20 05:30:11;;;;;;;19.73;5.43;;;22.80;98.10;;;;;;5022964;28;20030;-77
2022/07/20 05:32:37;;;;;;;17.02;5.15;;;22.70;98.20;;;;;;5004573;28;20040;-77
2022/07/20 05:35:04;;;;;;;22.98;5.70;;;22.70;98.20;;;;;;5006334;28;20018;-79
2022/07/20 05:37:30;;;;;;;19.08;5.05;;;22.70;98.30;;;;;;5025216;28;20037;-77
2022/07/20 05:39:56;;;;;;;16.20;4.80;;;22.70;98.00;;;;;;5026674;28;20021;-78
2022/07/20 05:42:22;;;;;;;18.83;5.40;;;22.80;97.80;;;;;;5028103;28;20041;-78
2022/07/20 05:44:48;;;;;;;13.10;4.90;;;23.10;97.40;;;;;;5028835;28;20080;-79
2022/07/20 05:47:14;;;;;;;10.98;5.05;;;23.50;96.50;;;;;;5026516;28;20030;-79
2022/07/20 05:49:39;;;;;;;13.23;5.00;;;23.80;95.80;;;;;;5013883;28;20142;-78
2022/07/20 05:52:05;;;;;;;15.05;5.13;;;23.90;95.00;;;;;;5022224;28;20084;-78
2022/07/20 05:54:31;;;;;;;9.65;4.45;;;24.00;94.50;;;;;;5030984;28;20033;-77
2022/07/20 05:56:57;;;;;;;8.90;4.80;;;24.00;93.50;;;;;;5026707;28;20038;-78
2022/07/20 05:59:23;;;;;;;11.75;4.65;;;24.10;92.90;;;;;;5026646;28;20022;-81
2022/07/20 06:01:48;;;;;;;10.80;4.20;;;24.20;92.70;;;;;;5011521;28;20030;-78
2022/07/20 06:04:14;;;;;;;15.80;5.13;;;24.20;91.80;;;;;;5030493;28;20121;-77
2022/07/20 06:06:41;;;;;;;10.65;4.10;;;24.00;91.80;;;;;;5029429;28;20030;-78
2022/07/20 06:09:07;;;;;;;12.57;4.95;;;24.00;91.90;;;;;;5012164;28;20026;-78
2022/07/20 06:11:34;;;;;;;9.77;4.30;;;24.00;91.60;;;;;;5029077;28;20477;-78
2022/07/20 06:14:00;;;;;;;12.05;4.88;;;24.10;91.90;;;;;;5013024;28;20018;-77
2022/07/20 06:16:27;;;;;;;12.55;4.60;;;24.10;91.00;;;;;;5028850;28;20069;-78
2022/07/20 06:18:53;;;;;;;14.13;4.72;;;24.40;90.70;;;;;;5023662;28;20029;-79
2022/07/20 06:21:19;;;;;;;19.70;4.20;;;24.40;90.00;;;;;;5021447;28;20478;-79
2022/07/20 06:23:44;;;;;;;12.88;3.88;;;24.40;90.00;;;;;;5004138;28;20033;-79
2022/07/20 06:26:10;;;;;;;12.35;4.43;;;24.40;89.40;;;;;;5022984;28;20026;-78
2022/07/20 06:28:36;;;;;;;8.05;4.10;;;24.40;88.90;;;;;;5025453;28;20113;-79
2022/07/20 06:31:03;;;;;;;7.55;4.03;;;24.50;90.80;;;;;;5020720;28;20128;-78
2022/07/20 06:33:29;;;;;;;12.43;4.20;;;24.60;90.80;;;;;;5021332;28;20021;-79
2022/07/20 06:35:54;;;;;;;9.10;3.80;;;24.70;90.40;;;;;;5019855;28;20022;-79
2022/07/20 06:38:20;;;;;;;17.30;3.70;;;24.70;89.80;;;;;;5018848;28;20529;-78
2022/07/20 06:40:46;;;;;;;11.68;3.83;;;24.70;89.10;;;;;;5017905;28;20021;-78
2022/07/20 06:43:12;;;;;;;11.43;4.15;;;24.70;88.90;;;;;;4995328;28;20022;-80
2022/07/20 06:45:37;;;;;;;13.30;4.35;;;24.80;88.50;;;;;;5021882;28;20026;-77
2022/07/20 06:48:04;;;;;;;13.02;3.70;;;24.80;87.30;;;;;;5003196;28;20026;-79
2022/07/20 06:50:29;;;;;;;14.63;3.70;;;25.00;87.90;;;;;;5016685;28;20026;-78
2022/07/20 06:52:55;;;;;;;9.55;4.32;;;25.00;87.60;;;;;;5018453;28;20022;-80
2022/07/20 06:55:22;;;;;;;8.90;4.20;;;25.00;85.20;;;;;;5020154;28;20413;-80
2022/07/20 06:57:48;;;;;;;13.57;4.00;;;24.90;86.00;;;;;;5004784;28;20030;-79
2022/07/20 07:00:14;;;;;;;12.70;4.40;;;24.90;87.10;;;;;;5022280;28;20109;-84
2022/07/20 07:02:40;;;;;;;11.07;4.93;;;25.00;86.90;;;;;;5025449;28;20030;-84
2022/07/20 07:05:07;;;;;;;16.42;4.72;;;25.10;86.60;;;;;;5027675;28;20065;-85
2022/07/20 07:07:33;;;;;;;10.90;4.50;;;25.40;86.10;;;;;;5026252;28;20041;-84
2022/07/20 07:09:59;;;;;;;11.25;4.15;;;25.50;86.10;;;;;;5026973;28;20037;-83
2022/07/20 07:12:24;;;;;;;22.02;4.40;;;25.60;85.90;;;;;;5025390;28;20034;-84
2022/07/20 07:14:50;;;;;;;8.43;4.32;;;25.60;85.70;;;;;;5032172;28;20026;-83
2022/07/20 07:17:16;;;;;;;10.20;4.88;;;25.80;85.70;;;;;;5033535;28;20038;-84
2022/07/20 07:19:42;;;;;;;12.98;3.65;;;25.90;85.70;;;;;;5033364;28;20026;-85
2022/07/20 07:22:09;;;;;;;13.40;4.28;;;25.90;85.50;;;;;;5035222;28;20049;-83
2022/07/20 07:24:35;;;;;;;13.70;4.15;;;26.00;85.30;;;;;;5016946;28;20090;-84
2022/07/20 07:27:01;;;;;;;13.90;4.25;;;26.10;85.10;;;;;;5012368;28;20037;-85
2022/07/20 07:29:27;;;;;;;17.10;4.40;;;26.20;84.40;;;;;;5013311;28;20054;-84
2022/07/20 07:31:58;;;;;;;10.52;4.03;;;26.40;83.80;;;;;;5012872;28;20053;-84
2022/07/20 07:34:28;;;;;;;9.63;3.85;;;26.40;83.90;;;;;;5029817;28;20215;-84
2022/07/20 07:36:54;;;;;;;7.28;3.38;;;26.60;83.40;;;;;;5024558;28;20056;-83
2022/07/20 07:39:20;;;;;;;9.27;3.00;;;26.60;82.40;;;;;;5022166;28;20022;-85
2022/07/20 07:41:46;;;;;;;5.28;2.60;;;26.80;81.50;;;;;;5024195;28;20504;-83
2022/07/20 07:44:12;;;;;;;4.53;2.85;;;26.80;82.30;;;;;;5023239;28;20026;-86
2022/07/20 07:46:38;;;;;;;11.55;3.83;;;27.00;81.70;;;;;;5006317;28;20060;-83
2022/07/20 07:49:04;;;;;;;11.95;3.42;;;27.10;81.80;;;;;;5023231;28;20026;-87
2022/07/20 07:51:30;;;;;;;15.25;3.65;;;27.20;82.10;;;;;;4989249;28;20049;-89
2022/07/20 07:53:58;;;;;;;19.80;4.13;;;27.20;82.30;;;;;;5008560;28;20034;-83
2022/07/20 07:56:24;;;;;;;8.95;3.30;;;27.30;81.70;;;;;;5004247;28;20022;-83
2022/07/20 07:58:50;;;;;;;10.90;3.05;;;27.40;81.10;;;;;;5003196;28;20057;-84
2022/07/20 08:01:15;;;;;;;13.02;3.08;;;27.50;80.90;;;;;;5004044;28;20038;-85
2022/07/20 08:03:41;;;;;;;11.68;3.17;;;27.70;80.80;;;;;;4987689;28;20029;-83
2022/07/20 08:06:07;;;;;;;16.50;3.65;;;28.00;80.00;;;;;;5007714;28;20037;-85
2022/07/20 08:08:33;;;;;;;13.52;3.60;;;28.10;79.50;;;;;;5008064;28;20034;-84
2022/07/20 08:10:59;;;;;;;10.80;3.17;;;28.20;78.80;;;;;;5007824;28;20030;-83
2022/07/20 08:13:26;;;;;;;5.70;2.83;;;28.50;78.10;;;;;;4984144;28;20033;-84
2022/07/20 08:15:52;;;;;;;12.30;2.97;;;28.50;77.30;;;;;;4984490;28;20032;-83
2022/07/20 08:18:18;;;;;;;15.18;2.70;;;28.50;76.90;;;;;;4985743;28;20050;-85
2022/07/20 08:20:44;;;;;;;12.63;3.60;;;28.50;76.90;;;;;;5001007;28;20115;-82
2022/07/20 08:23:10;;;;;;;32.47;3.08;;;28.60;76.80;;;;;;4983372;28;20054;-85
2022/07/20 08:25:36;;;;;;;15.23;2.88;;;28.70;75.20;;;;;;4985897;28;20098;-81
2022/07/20 08:28:16;;;;;;;7.70;2.67;;;28.80;75.40;;;;;;5003550;28;20053;-86
2022/07/20 08:30:44;;;;;;;11.70;2.90;;;28.80;74.60;;;;;;4985649;28;20050;-83
2022/07/20 08:33:10;;;;;;;10.23;3.28;;;28.90;74.50;;;;;;4981261;28;20046;-82
2022/07/20 08:35:37;;;;;;;7.43;2.92;;;29.10;74.50;;;;;;5004564;28;20030;-84
2022/07/20 08:38:03;;;;;;;8.40;2.40;;;29.20;74.40;;;;;;4982609;28;20502;-85
2022/07/20 08:40:30;;;;;;;9.55;2.42;;;29.40;74.10;;;;;;5001224;28;20046;-85
2022/07/20 08:42:57;;;;;;;10.70;2.45;;;29.50;73.50;;;;;;5004447;28;20038;-84
2022/07/20 08:45:23;;;;;;;13.73;2.15;;;29.70;72.60;;;;;;4986047;28;20038;-83
2022/07/20 08:47:49;;;;;;;14.52;2.65;;;29.80;71.80;;;;;;4982898;28;20034;-83
2022/07/20 08:50:24;;;;;;;8.57;2.33;;;30.00;71.40;;;;;;5004946;28;20069;-84
2022/07/20 08:52:50;;;;;;;13.10;2.28;;;30.20;71.00;;;;;;5000306;28;20036;-83
2022/07/20 08:55:16;;;;;;;8.07;2.25;;;30.40;70.90;;;;;;5002545;28;20031;-84
2022/07/20 08:57:42;;;;;;;5.00;2.15;;;30.50;69.70;;;;;;5004258;28;20026;-84
2022/07/20 09:00:09;;;;;;;13.95;2.72;;;30.50;69.10;;;;;;5005474;28;20022;-84
2022/07/20 09:03:01;;;;;;;10.68;2.28;;;30.50;69.10;;;;;;5005901;28;20034;-83
2022/07/20 09:05:28;;;;;;;9.30;2.30;;;30.50;67.90;;;;;;5003308;28;20042;-83
2022/07/20 09:07:56;;;;;;;5.60;3.28;;;30.60;68.00;;;;;;5006235;28;20093;-84
2022/07/20 09:10:34;;;;;;;6.97;1.95;;;30.80;67.30;;;;;;5004033;28;20026;-83
2022/07/20 09:13:13;;;;;;;8.93;2.38;;;30.80;66.80;;;;;;4990069;28;20056;-84
2022/07/20 09:15:41;;;;;;;4.72;2.05;;;30.90;66.30;;;;;;4990651;28;20052;-82
2022/07/20 09:18:19;;;;;;;7.10;2.30;;;31.00;65.80;;;;;;4991311;28;20018;-83
2022/07/20 09:20:53;;;;;;;7.65;2.08;;;31.10;64.00;;;;;;5012639;28;20041;-81
2022/07/20 09:23:31;;;;;;;5.53;2.05;;;31.20;62.90;;;;;;4997415;28;20030;-82
2022/07/20 09:26:04;;;;;;;7.38;1.70;;;31.30;62.50;;;;;;5016589;28;20041;-82
2022/07/20 09:28:50;;;;;;;10.95;1.95;;;31.30;61.70;;;;;;5016478;28;20048;-83
2022/07/20 09:31:18;;;;;;;9.43;2.15;;;31.40;60.50;;;;;;5072403;23;20057;-87
2022/07/20 09:34:15;;;;;;;5.57;1.88;;;31.50;60.20;;;;;;5037078;28;20006;-88
2022/07/20 09:36:43;;;;;;;8.25;1.80;;;31.60;59.60;;;;;;5030114;28;20014;-89
2022/07/20 09:39:12;;;;;;;9.60;2.17;;;31.50;59.80;;;;;;5029999;28;20075;-89
2022/07/20 09:41:40;;;;;;;5.70;1.70;;;31.60;58.90;;;;;;5016005;28;20018;-88
2022/07/20 09:44:10;;;;;;;5.80;1.60;;;31.60;58.90;;;;;;5017641;28;20010;-89
2022/07/20 09:46:41;;;;;;;10.75;2.15;;;31.90;56.90;;;;;;5000421;28;20027;-90
2022/07/20 09:49:09;;;;;;;5.47;1.75;;;32.10;56.50;;;;;;5019185;28;20035;-90
2022/07/20 09:51:38;;;;;;;15.27;2.08;;;32.50;56.70;;;;;;5020393;28;20038;-89
2022/07/20 09:54:10;;;;;;;6.28;1.95;;;32.80;56.40;;;;;;5019144;28;20040;-89
2022/07/20 09:56:39;;;;;;;7.35;2.30;;;33.30;55.00;;;;;;4995346;28;20038;-89
2022/07/20 09:59:10;;;;;;;8.20;1.70;;;33.60;55.10;;;;;;5010347;28;20125;-89
2022/07/20 10:01:42;;;;;;;8.70;1.95;;;33.90;54.70;;;;;;4993426;28;20490;-89
2022/07/20 10:04:10;;;;;;;4.13;2.22;;;34.20;54.20;;;;;;5011155;28;20470;-90
2022/07/20 10:06:39;;;;;;;8.18;2.30;;;34.50;53.80;;;;;;5009603;28;20022;-89
2022/07/20 10:09:06;;;;;;;4.65;2.00;;;34.90;53.20;;;;;;4992733;28;20038;-90
2022/07/20 10:11:32;;;;;;;9.35;2.40;;;35.50;52.40;;;;;;4975977;28;20042;-88
2022/07/20 10:14:04;;;;;;;7.35;2.55;;;36.10;51.80;;;;;;4990134;28;20041;-90
2022/07/20 10:16:47;;;;;;;6.03;2.15;;;36.60;51.10;;;;;;5008862;28;20030;-89
2022/07/20 10:19:14;;;;;;;3.28;1.73;;;37.20;50.30;;;;;;4990020;28;20133;-90
2022/07/20 10:21:44;;;;;;;6.65;1.98;;;37.70;50.00;;;;;;5008735;28;20034;-90
2022/07/20 10:24:30;;;;;;;10.38;2.45;;;38.40;49.00;;;;;;5006917;28;20061;-90
2022/07/20 10:27:22;;;;;;;5.95;2.65;;;39.40;48.00;;;;;;5008911;28;20026;-90
2022/07/20 10:29:53;;;;;;;8.38;2.20;;;40.20;47.30;;;;;;4993032;28;20027;-89
2022/07/20 10:32:25;;;;;;;5.82;2.08;;;40.60;46.60;;;;;;4990465;28;20039;-89
2022/07/20 10:34:55;;;;;;;9.68;1.88;;;40.70;46.40;;;;;;4997462;28;20034;-90
2022/07/20 10:37:25;;;;;;;5.50;2.10;;;40.10;45.70;;;;;;5016866;28;20065;-89
2022/07/20 10:39:57;;;;;;;5.63;2.15;;;40.70;45.70;;;;;;5013193;28;20438;-92
2022/07/20 10:42:33;;;;;;;14.60;2.08;;;41.20;44.30;;;;;;4999337;28;20030;-91
2022/07/20 10:45:15;;;;;;;2.95;1.55;;;41.90;44.40;;;;;;4997673;28;20056;-90
2022/07/20 10:47:44;;;;;;;5.25;1.83;;;42.70;43.80;;;;;;5013307;28;20049;-91
2022/07/20 10:50:17;;;;;;;10.52;2.42;;;43.30;43.50;;;;;;4993054;28;20030;-88
2022/07/20 10:52:48;;;;;;;3.40;2.30;;;43.50;43.10;;;;;;5013218;28;20030;-90
2022/07/20 10:55:33;;;;;;;4.32;2.10;;;43.10;42.40;;;;;;4997069;28;20022;-89
2022/07/20 10:58:06;;;;;;;11.07;1.95;;;43.50;42.50;;;;;;4996330;28;20041;-90
2022/07/20 11:00:35;;;;;;;4.75;1.90;;;43.20;42.70;;;;;;4991846;28;20046;-91
2022/07/20 11:03:02;;;;;;;5.18;1.77;;;43.50;42.20;;;;;;5007681;28;20022;-89
2022/07/20 11:05:28;;;;;;;4.13;2.03;;;43.50;42.10;;;;;;4989848;28;20090;-90
2022/07/20 11:07:54;;;;;;;5.32;2.25;;;43.50;41.80;;;;;;5007163;28;20462;-90
2022/07/20 11:10:26;;;;;;;5.88;1.75;;;43.60;41.40;;;;;;5008242;28;20050;-89
2022/07/20 11:12:55;;;;;;;2.63;1.92;;;43.70;41.20;;;;;;5007211;28;20057;-89
2022/07/20 11:15:21;;;;;;;10.50;1.95;;;43.70;41.10;;;;;;5009565;28;20038;-90
2022/07/20 11:17:47;;;;;;;6.53;1.98;;;44.40;40.60;;;;;;4996022;28;20040;-89
2022/07/20 11:20:17;;;;;;;3.72;1.70;;;44.60;40.10;;;;;;4994115;28;20031;-89
2022/07/20 11:22:44;;;;;;;5.22;1.40;;;45.10;39.80;;;;;;4992607;28;20073;-90
2022/07/20 11:25:10;;;;;;;4.82;1.70;;;45.60;39.60;;;;;;5010897;28;20018;-89
2022/07/20 11:27:36;;;;;;;4.20;2.10;;;44.90;39.20;;;;;;5013073;28;20030;-90
2022/07/20 11:30:02;;;;;;;4.65;2.00;;;44.70;39.20;;;;;;4999032;28;20053;-90
2022/07/20 11:32:28;;;;;;;6.13;1.88;;;45.10;39.00;;;;;;4999042;28;20486;-90
2022/07/20 11:34:54;;;;;;;6.63;2.13;;;45.70;38.40;;;;;;4999894;28;20042;-91
2022/07/20 11:37:21;;;;;;;4.22;1.70;;;46.50;38.20;;;;;;5000433;28;20036;-89
2022/07/20 11:39:48;;;;;;;4.30;1.80;;;46.20;38.20;;;;;;5001484;28;20022;-90
2022/07/20 11:42:15;;;;;;;8.95;2.00;;;46.30;38.40;;;;;;5002029;28;20053;-89
2022/07/20 11:44:58;;;;;;;11.27;1.75;;;46.20;37.50;;;;;;5001609;28;20198;-89
2022/07/20 11:47:24;;;;;;;3.80;1.92;;;45.90;37.10;;;;;;4987910;28;20026;-90
2022/07/20 11:50:07;;;;;;;9.02;2.10;;;45.10;37.10;;;;;;5019158;28;20019;-90
2022/07/20 11:52:41;;;;;;;4.60;1.90;;;44.70;37.40;;;;;;5002236;28;20030;-90
2022/07/20 11:55:07;;;;;;;7.55;2.40;;;43.90;37.60;;;;;;5001865;28;20026;-90
2022/07/20 11:57:34;;;;;;;6.40;1.60;;;44.60;37.80;;;;;;5001055;28;20034;-88
2022/07/20 12:00:00;;;;;;;4.68;1.60;;;44.60;38.00;;;;;;4995796;28;20026;-89
2022/07/20 12:02:26;;;;;;;3.35;1.60;;;45.30;37.50;;;;;;4990556;28;20030;-89
2022/07/20 12:04:52;;;;;;;5.63;1.60;;;45.40;37.40;;;;;;4991944;28;20088;-87
2022/07/20 12:10:34;;;;;;;4.68;1.27;;;45.60;37.10;;;;;;4987584;28;20349;-88
2022/07/20 12:13:05;;;;;;;9.45;1.63;;;44.90;37.40;;;;;;5014144;28;20056;-89
2022/07/20 12:15:32;;;;;;;6.20;2.17;;;45.00;37.10;;;;;;5017517;28;20018;-90
2022/07/20 12:17:58;;;;;;;2.92;1.40;;;45.30;36.90;;;;;;5017992;28;20034;-89
2022/07/20 12:20:25;;;;;;;5.70;1.67;;;45.50;36.60;;;;;;5001109;28;20029;-90
2022/07/20 12:22:54;;;;;;;6.13;1.80;;;45.30;36.80;;;;;;5017139;28;20094;-89
2022/07/20 12:25:20;;;;;;;4.25;1.63;;;45.20;36.90;;;;;;5001528;28;20117;-90
2022/07/20 12:27:46;;;;;;;4.75;1.90;;;44.50;37.00;;;;;;5018574;28;20014;-89
2022/07/20 12:30:34;;;;;;;3.33;1.70;;;44.00;37.00;;;;;;5018515;28;20026;-89
2022/07/20 12:33:15;;;;;;;2.45;1.40;;;43.90;37.80;;;;;;5018240;28;20035;-90
2022/07/20 12:35:47;;;;;;;3.95;1.60;;;45.00;37.00;;;;;;5018937;28;20053;-89
2022/07/20 12:38:14;;;;;;;4.00;1.30;;;45.80;36.80;;;;;;5018888;28;20010;-88
2022/07/20 12:40:45;;;;;;;1.80;1.50;;;46.00;36.30;;;;;;5001643;28;20125;-89
2022/07/20 12:43:34;;;;;;;3.28;1.80;;;46.10;36.20;;;;;;4986009;28;20038;-90
2022/07/20 12:46:11;;;;;;;5.25;1.73;;;45.80;36.50;;;;;;5018863;28;20014;-89
2022/07/20 12:48:44;;;;;;;4.03;1.50;;;46.20;36.30;;;;;;5002146;28;20057;-88
2022/07/20 12:51:11;;;;;;;4.65;1.60;;;46.00;36.20;;;;;;5001395;28;20110;-87